createdAt,value
2022-09-15T00:01:01.308Z,65.48
2022-09-15T00:03:28.932Z,66.23
2022-09-15T00:05:56.273Z,66.38
2022-09-15T00:08:24.093Z,66.39
2022-09-15T00:11:03.013Z,66.05
2022-09-15T00:13:30.349Z,66.28
2022-09-15T00:15:57.973Z,69.61
2022-09-15T00:18:25.401Z,70.95
2022-09-15T00:20:52.782Z,71.08
2022-09-15T00:23:20.539Z,70.33
2022-09-15T00:25:49.891Z,70.50
2022-09-15T00:28:21.522Z,70.42
2022-09-15T00:30:53.956Z,71.30
2022-09-15T00:33:21.921Z,70.75
2022-09-15T00:35:51.816Z,70.54
2022-09-15T00:38:19.902Z,71.64
2022-09-15T00:40:48.114Z,72.72
2022-09-15T00:43:16.510Z,72.47
2022-09-15T00:45:44.979Z,73.21
2022-09-15T00:48:15.882Z,73.77
2022-09-15T00:50:45.201Z,74.19
2022-09-15T00:53:12.534Z,74.33
2022-09-15T00:55:45.857Z,73.59
2022-09-15T00:58:20.810Z,74.98
2022-09-15T01:00:52.789Z,75.83
2022-09-15T01:03:20.488Z,74.33
2022-09-15T01:05:50.743Z,74.29
2022-09-15T01:08:22.480Z,73.58
2022-09-15T01:10:52.073Z,74.36
2022-09-15T01:13:19.379Z,73.72
2022-09-15T01:15:53.024Z,76.09
2022-09-15T01:18:50.516Z,74.71
2022-09-15T01:21:38.108Z,72.91
2022-09-15T01:24:11.765Z,72.43
2022-09-15T01:27:06.540Z,72.17
2022-09-15T01:30:30.807Z,72.42
2022-09-15T01:33:15.737Z,71.33
2022-09-15T01:36:12.384Z,70.59
2022-09-15T01:38:48.953Z,70.66
2022-09-15T01:41:19.400Z,70.22
2022-09-15T01:43:54.508Z,69.82
2022-09-15T01:46:23.557Z,69.42
2022-09-15T01:48:50.861Z,69.13
2022-09-15T01:51:18.313Z,68.67
2022-09-15T01:53:46.271Z,68.69
2022-09-15T01:56:13.734Z,68.41
2022-09-15T01:58:41.087Z,69.12
2022-09-15T02:01:10.062Z,69.40
2022-09-15T02:03:55.499Z,70.15
2022-09-15T02:06:29.686Z,69.69
2022-09-15T02:09:01.442Z,68.24
2022-09-15T02:11:28.986Z,68.26
2022-09-15T02:14:13.843Z,67.80
2022-09-15T02:16:42.175Z,68.49
2022-09-15T02:19:32.925Z,67.80
2022-09-15T02:22:17.619Z,67.34
2022-09-15T02:24:50.023Z,67.21
2022-09-15T02:27:22.156Z,67.16
2022-09-15T02:29:50.360Z,66.76
2022-09-15T02:32:18.189Z,67.06
2022-09-15T02:34:47.372Z,67.68
2022-09-15T02:37:14.981Z,66.73
2022-09-15T02:39:45.390Z,66.16
2022-09-15T02:42:13.378Z,66.20
2022-09-15T02:44:41.338Z,66.33
2022-09-15T02:47:08.702Z,65.01
2022-09-15T02:49:36.038Z,64.98
2022-09-15T02:52:03.691Z,65.08
2022-09-15T02:54:31.101Z,64.99
2022-09-15T02:57:00.133Z,65.00
2022-09-15T02:59:47.681Z,64.16
2022-09-15T03:02:15.120Z,64.37
2022-09-15T03:04:42.730Z,64.01
2022-09-15T03:07:10.057Z,63.90
2022-09-15T03:09:38.053Z,64.90
2022-09-15T03:12:05.837Z,65.14
2022-09-15T03:14:33.203Z,64.12
2022-09-15T03:17:00.518Z,63.96
2022-09-15T03:19:28.183Z,63.43
2022-09-15T03:21:55.518Z,64.74
2022-09-15T03:24:23.224Z,64.48
2022-09-15T03:26:50.832Z,64.63
2022-09-15T03:29:18.202Z,64.86
2022-09-15T03:31:45.723Z,65.01
2022-09-15T03:34:13.350Z,65.92
2022-09-15T03:36:41.222Z,66.28
2022-09-15T03:39:09.365Z,66.11
2022-09-15T03:41:37.007Z,66.89
2022-09-15T03:44:04.546Z,65.48
2022-09-15T03:46:31.876Z,66.16
2022-09-15T03:48:59.504Z,65.92
2022-09-15T03:51:27.221Z,67.08
2022-09-15T03:53:54.602Z,66.30
2022-09-15T03:56:27.463Z,66.72
2022-09-15T03:58:54.783Z,66.89
2022-09-15T04:01:23.543Z,66.39
2022-09-15T04:03:51.630Z,66.09
2022-09-15T04:06:20.887Z,66.68
2022-09-15T04:08:49.103Z,66.61
2022-09-15T04:11:17.013Z,65.53
2022-09-15T04:13:44.360Z,66.01
2022-09-15T04:16:13.529Z,66.19
2022-09-15T04:18:41.201Z,65.40
2022-09-15T04:21:16.705Z,65.42
2022-09-15T04:23:44.451Z,63.94
2022-09-15T04:26:15.370Z,65.35
2022-09-15T04:28:42.743Z,66.57
2022-09-15T04:31:11.718Z,65.74
2022-09-15T04:33:39.637Z,66.63
2022-09-15T04:36:15.260Z,67.01
2022-09-15T04:38:42.980Z,67.95
2022-09-15T04:41:10.563Z,69.24
2022-09-15T04:43:38.071Z,68.10
2022-09-15T04:46:05.717Z,67.97
2022-09-15T04:48:33.185Z,68.90
2022-09-15T04:51:04.323Z,69.49
2022-09-15T04:53:32.129Z,69.48
2022-09-15T04:56:04.269Z,68.70
2022-09-15T04:58:36.076Z,69.73
2022-09-15T05:01:16.528Z,68.84
2022-09-15T05:03:44.309Z,68.04
2022-09-15T05:06:12.645Z,68.03
2022-09-15T05:08:40.130Z,68.92
2022-09-15T05:11:09.819Z,68.34
2022-09-15T05:13:37.201Z,70.64
2022-09-15T05:16:09.325Z,70.43
2022-09-15T05:18:36.975Z,68.01
2022-09-15T05:21:04.921Z,68.12
2022-09-15T05:23:33.380Z,68.07
2022-09-15T05:26:02.090Z,69.87
2022-09-15T05:28:29.578Z,69.73
2022-09-15T05:30:57.046Z,70.54
2022-09-15T05:33:24.821Z,70.96
2022-09-15T05:35:52.752Z,70.48
2022-09-15T05:38:20.206Z,72.78
2022-09-15T05:40:47.880Z,70.54
2022-09-15T05:43:15.454Z,72.48
2022-09-15T05:45:42.819Z,71.40
2022-09-15T05:48:11.239Z,71.91
2022-09-15T05:50:38.820Z,70.61
2022-09-15T05:53:07.509Z,69.92
2022-09-15T05:55:38.251Z,67.41
2022-09-15T05:58:05.625Z,68.92
2022-09-15T06:00:33.742Z,68.08
2022-09-15T06:03:01.435Z,65.80
2022-09-15T06:05:28.934Z,65.64
2022-09-15T06:07:56.560Z,65.74
2022-09-15T06:10:27.324Z,66.20
2022-09-15T06:12:54.743Z,66.67
2022-09-15T06:15:22.734Z,65.95
2022-09-15T06:17:50.716Z,65.06
2022-09-15T06:20:18.723Z,65.17
2022-09-15T06:22:46.045Z,65.33
2022-09-15T06:25:13.697Z,64.10
2022-09-15T06:27:41.564Z,65.64
2022-09-15T06:30:09.449Z,65.07
2022-09-15T06:32:37.181Z,63.38
2022-09-15T06:35:07.781Z,65.12
2022-09-15T06:37:35.140Z,63.54
2022-09-15T06:40:04.385Z,62.79
2022-09-15T06:42:31.762Z,62.51
2022-09-15T06:44:59.466Z,61.88
2022-09-15T06:47:33.720Z,62.29
2022-09-15T06:50:01.337Z,61.47
2022-09-15T06:52:29.045Z,61.56
2022-09-15T06:54:56.410Z,61.56
2022-09-15T06:57:23.849Z,61.31
2022-09-15T06:59:59.723Z,61.58
2022-09-15T07:02:27.156Z,60.69
2022-09-15T07:04:54.873Z,61.25
2022-09-15T07:07:22.247Z,62.89
2022-09-15T07:09:49.619Z,62.63
2022-09-15T07:12:17.266Z,62.20
2022-09-15T07:14:44.802Z,64.25
2022-09-15T07:17:12.268Z,64.59
2022-09-15T07:19:41.372Z,63.16
2022-09-15T07:22:08.752Z,64.55
2022-09-15T07:24:36.104Z,63.14
2022-09-15T07:27:03.809Z,63.33
2022-09-15T07:29:34.765Z,63.53
2022-09-15T07:32:05.840Z,64.21
2022-09-15T07:34:33.762Z,65.50
2022-09-15T07:37:01.401Z,64.07
2022-09-15T07:39:29.071Z,64.25
2022-09-15T07:41:56.508Z,63.18
2022-09-15T07:44:23.869Z,61.24
2022-09-15T07:46:51.501Z,60.33
2022-09-15T07:49:19.085Z,60.02
2022-09-15T07:51:46.415Z,58.50
2022-09-15T07:54:16.301Z,57.11
2022-09-15T07:56:47.054Z,56.98
2022-09-15T07:59:14.775Z,56.59
2022-09-15T08:01:42.162Z,55.93
2022-09-15T08:04:09.875Z,55.46
2022-09-15T08:06:37.223Z,55.33
2022-09-15T08:09:04.751Z,55.69
2022-09-15T08:11:32.561Z,54.83
2022-09-15T08:14:01.179Z,55.95
2022-09-15T08:16:28.586Z,56.44
2022-09-15T08:18:56.305Z,55.07
2022-09-15T08:21:23.961Z,54.46
2022-09-15T08:23:52.576Z,54.03
2022-09-15T08:26:20.233Z,53.02
2022-09-15T08:28:47.990Z,53.00
2022-09-15T08:31:15.579Z,53.80
2022-09-15T08:33:45.914Z,52.84
2022-09-15T08:36:13.517Z,52.21
2022-09-15T08:38:41.427Z,51.02
2022-09-15T08:41:13.719Z,49.98
2022-09-15T08:43:44.849Z,48.97
2022-09-15T08:46:15.387Z,49.69
2022-09-15T08:48:47.995Z,52.28
2022-09-15T08:51:21.186Z,50.84
2022-09-15T08:53:52.406Z,48.86
2022-09-15T08:56:21.043Z,50.23
2022-09-15T08:58:48.626Z,48.44
2022-09-15T09:01:38.385Z,48.69
2022-09-15T09:04:32.272Z,48.76
2022-09-15T09:07:24.546Z,48.95
2022-09-15T09:10:04.482Z,48.98
2022-09-15T09:12:54.595Z,47.71
2022-09-15T09:15:36.971Z,47.81
2022-09-15T09:18:25.879Z,47.30
2022-09-15T09:21:04.610Z,46.39
2022-09-15T09:23:33.069Z,46.28
2022-09-15T09:26:02.093Z,46.63
2022-09-15T09:28:36.301Z,46.58
2022-09-15T09:31:07.120Z,46.79
2022-09-15T09:33:43.890Z,45.58
2022-09-15T09:36:14.403Z,44.84
2022-09-15T09:38:43.358Z,44.15
2022-09-15T09:41:15.393Z,46.15
2022-09-15T09:43:43.426Z,44.66
2022-09-15T09:46:16.225Z,44.06
2022-09-15T09:48:56.467Z,42.49
2022-09-15T09:52:02.384Z,41.41
2022-09-15T09:54:33.885Z,42.90
2022-09-15T09:57:13.566Z,41.03
2022-09-15T09:59:46.089Z,40.17
2022-09-15T10:02:23.239Z,40.05
2022-09-15T10:05:02.806Z,38.78
2022-09-15T10:07:30.362Z,38.16
2022-09-15T10:09:59.190Z,38.20
2022-09-15T10:12:34.747Z,38.50
2022-09-15T10:15:02.697Z,37.78
2022-09-15T10:17:36.044Z,38.49
2022-09-15T10:20:05.093Z,37.67
2022-09-15T10:22:33.959Z,37.02
2022-09-15T10:25:02.623Z,37.42
2022-09-15T10:27:32.022Z,37.18
2022-09-15T10:30:14.675Z,37.30
2022-09-15T10:32:42.765Z,36.99
2022-09-15T10:35:14.754Z,37.25
2022-09-15T10:38:11.903Z,36.67
2022-09-15T10:40:48.289Z,36.43
2022-09-15T10:43:49.428Z,37.17
2022-09-15T10:46:24.010Z,36.75
2022-09-15T10:49:03.820Z,36.46
2022-09-15T10:51:43.028Z,36.54
2022-09-15T10:54:17.478Z,36.68
2022-09-15T10:56:47.601Z,37.42
2022-09-15T10:59:33.887Z,36.84
2022-09-15T11:02:19.921Z,36.88
2022-09-15T11:05:00.366Z,37.19
2022-09-15T11:07:42.676Z,39.82
2022-09-15T11:10:20.371Z,39.94
2022-09-15T11:13:03.047Z,41.96
2022-09-15T11:15:53.150Z,43.11
2022-09-15T11:18:27.705Z,42.91
2022-09-15T11:20:58.359Z,44.21
2022-09-15T11:23:32.500Z,44.19
2022-09-15T11:26:07.944Z,44.57
2022-09-15T11:28:43.958Z,45.23
2022-09-15T11:31:42.237Z,45.23
2022-09-15T11:34:21.068Z,46.03
2022-09-15T11:37:05.452Z,47.17
2022-09-15T11:39:46.717Z,47.86
2022-09-15T11:42:18.565Z,46.91
2022-09-15T11:44:46.561Z,47.54
2022-09-15T11:47:23.214Z,48.94
2022-09-15T11:50:10.074Z,47.76
2022-09-15T11:52:52.140Z,48.80
2022-09-15T11:55:30.047Z,48.60
2022-09-15T11:58:39.583Z,48.29
2022-09-15T12:01:20.411Z,47.54
2022-09-15T12:03:59.571Z,48.51
2022-09-15T12:06:40.006Z,48.13
2022-09-15T12:09:12.802Z,47.93
2022-09-15T12:11:57.229Z,47.56
2022-09-15T12:14:54.095Z,47.38
2022-09-15T12:17:53.656Z,48.60
2022-09-15T12:20:59.635Z,49.32
2022-09-15T12:23:32.813Z,48.31
2022-09-15T12:26:05.272Z,48.94
2022-09-15T12:28:56.229Z,48.86
2022-09-15T12:31:23.716Z,49.31
2022-09-15T12:34:25.158Z,49.18
2022-09-15T12:36:53.669Z,49.58
2022-09-15T12:39:37.984Z,49.48
2022-09-15T12:42:22.577Z,49.83
2022-09-15T12:45:20.038Z,49.45
2022-09-15T12:47:56.538Z,50.08
2022-09-15T12:50:27.457Z,53.43
2022-09-15T12:53:00.353Z,57.93
2022-09-15T12:55:34.932Z,59.69
2022-09-15T12:58:10.320Z,57.28
2022-09-15T13:00:45.541Z,58.29
2022-09-15T13:03:47.244Z,60.82
2022-09-15T13:06:24.705Z,62.20
2022-09-15T13:08:52.297Z,64.31
2022-09-15T13:11:25.504Z,64.54
2022-09-15T13:13:55.980Z,63.82
2022-09-15T13:16:43.681Z,63.11
2022-09-15T13:19:31.317Z,62.77
2022-09-15T13:22:00.452Z,61.47
2022-09-15T13:24:38.091Z,61.63
2022-09-15T13:27:05.925Z,66.02
2022-09-15T13:29:33.551Z,63.82
2022-09-15T13:32:10.043Z,65.16
2022-09-15T13:35:07.200Z,64.19
2022-09-15T13:38:13.546Z,62.48
2022-09-15T13:40:43.011Z,63.22
2022-09-15T13:43:41.025Z,62.17
2022-09-15T13:46:32.719Z,61.90
2022-09-15T13:49:32.813Z,62.84
2022-09-15T13:52:23.404Z,67.41
2022-09-15T13:55:17.013Z,68.40
2022-09-15T14:00:58.831Z,66.07
2022-09-15T14:03:38.748Z,69.62
2022-09-15T14:06:33.563Z,70.08
2022-09-15T14:09:04.584Z,67.30
2022-09-15T14:11:32.647Z,65.28
2022-09-15T14:14:00.900Z,68.56
2022-09-15T14:16:39.042Z,68.81
2022-09-15T14:19:30.553Z,70.14
2022-09-15T14:21:59.108Z,69.02
2022-09-15T14:24:29.242Z,71.04
2022-09-15T14:27:01.214Z,75.07
2022-09-15T14:29:28.936Z,74.59
2022-09-15T14:32:00.325Z,73.61
2022-09-15T14:34:30.564Z,75.59
2022-09-15T14:37:06.172Z,77.81
2022-09-15T14:39:34.191Z,82.87
2022-09-15T14:42:18.985Z,83.45
2022-09-15T14:47:39.628Z,83.49
2022-09-15T14:50:15.680Z,89.26
2022-09-15T14:53:03.617Z,88.84
2022-09-15T14:55:38.204Z,88.26
2022-09-15T14:58:18.921Z,88.93
2022-09-15T15:01:15.812Z,88.87
2022-09-15T15:03:48.164Z,89.52
2022-09-15T15:06:29.403Z,88.01
2022-09-15T15:09:12.842Z,86.53
2022-09-15T15:11:40.339Z,83.68
2022-09-15T15:14:08.533Z,83.74
2022-09-15T15:16:36.020Z,85.55
2022-09-15T15:19:03.520Z,88.31
2022-09-15T15:21:41.388Z,84.51
2022-09-15T15:24:14.835Z,84.03
2022-09-15T15:26:43.361Z,81.82
2022-09-15T15:29:46.111Z,81.27
2022-09-15T15:32:15.609Z,81.99
2022-09-15T15:34:58.607Z,80.93
2022-09-15T15:37:27.540Z,80.66
2022-09-15T15:40:00.914Z,82.12
2022-09-15T15:42:29.082Z,81.60
2022-09-15T15:45:21.235Z,80.77
2022-09-15T15:47:50.487Z,79.90
2022-09-15T15:50:20.802Z,80.03
2022-09-15T15:52:48.657Z,79.50
2022-09-15T15:55:17.755Z,79.77
2022-09-15T15:57:45.614Z,78.76
2022-09-15T16:00:21.531Z,77.95
2022-09-15T16:02:52.659Z,78.62
2022-09-15T16:05:20.703Z,78.93
2022-09-15T16:07:48.436Z,78.59
2022-09-15T16:10:18.622Z,77.43
2022-09-15T16:12:45.950Z,77.25
2022-09-15T16:15:16.777Z,74.83
2022-09-15T16:17:46.827Z,75.23
2022-09-15T16:20:16.107Z,75.59
2022-09-15T16:22:43.903Z,77.50
2022-09-15T16:25:33.156Z,77.72
2022-09-15T16:28:02.660Z,77.13
2022-09-15T16:30:30.212Z,77.85
2022-09-15T16:32:57.767Z,77.93
2022-09-15T16:35:43.206Z,76.87
2022-09-15T16:38:10.600Z,76.66
2022-09-15T16:40:38.205Z,76.10
2022-09-15T16:43:09.761Z,74.48
2022-09-15T16:45:40.810Z,77.09
2022-09-15T16:48:09.552Z,76.94
2022-09-15T16:50:39.795Z,76.76
2022-09-15T16:53:18.378Z,77.32
2022-09-15T16:55:50.607Z,77.27
2022-09-15T16:58:19.218Z,76.47
2022-09-15T17:00:48.225Z,76.57
2022-09-15T17:03:17.791Z,75.96
2022-09-15T17:05:48.630Z,76.12
2022-09-15T17:08:16.969Z,77.45
2022-09-15T17:10:46.133Z,76.98
2022-09-15T17:13:16.394Z,77.70
2022-09-15T17:15:45.743Z,76.89
2022-09-15T17:18:15.383Z,77.17
2022-09-15T17:20:43.550Z,77.07
2022-09-15T17:23:23.480Z,76.37
2022-09-15T17:25:53.002Z,77.74
2022-09-15T17:28:22.362Z,77.32
2022-09-15T17:30:50.757Z,77.51
2022-09-15T17:33:19.855Z,77.54
2022-09-15T17:35:47.429Z,77.74
2022-09-15T17:38:16.730Z,77.43
2022-09-15T17:40:44.369Z,77.15
2022-09-15T17:43:16.681Z,76.50
2022-09-15T17:45:44.417Z,77.86
2022-09-15T17:48:13.153Z,77.06
2022-09-15T17:50:41.783Z,76.99
2022-09-15T17:53:13.399Z,76.57
2022-09-15T17:55:40.795Z,74.53
2022-09-15T17:58:08.257Z,76.31
2022-09-15T18:00:37.946Z,75.92
2022-09-15T18:03:15.745Z,76.33
2022-09-15T18:05:43.114Z,76.30
2022-09-15T18:08:10.827Z,77.88
2022-09-15T18:10:38.214Z,77.79
2022-09-15T18:13:05.864Z,78.43
2022-09-15T18:15:34.514Z,78.57
2022-09-15T18:18:04.061Z,77.27
2022-09-15T18:20:32.827Z,78.94
2022-09-15T18:23:00.477Z,77.09
2022-09-15T18:25:33.584Z,77.64
2022-09-15T18:28:01.480Z,78.49
2022-09-15T18:30:33.601Z,77.90
2022-09-15T18:33:04.221Z,77.14
2022-09-15T18:35:32.000Z,77.14
2022-09-15T18:37:59.744Z,76.78
2022-09-15T18:40:27.918Z,76.12
2022-09-15T18:42:56.569Z,76.14
2022-09-15T18:45:26.007Z,75.84
2022-09-15T18:47:53.698Z,76.45
2022-09-15T18:50:22.673Z,76.61
2022-09-15T18:52:50.530Z,77.37
2022-09-15T18:55:20.227Z,76.55
2022-09-15T18:57:48.266Z,76.25
2022-09-15T19:00:20.460Z,78.07
2022-09-15T19:02:48.361Z,77.27
2022-09-15T19:05:17.234Z,78.01
2022-09-15T19:07:45.714Z,77.81
2022-09-15T19:10:14.344Z,78.17
2022-09-15T19:12:41.806Z,77.71
2022-09-15T19:15:11.249Z,77.47
2022-09-15T19:17:39.468Z,77.61
2022-09-15T19:20:08.310Z,77.74
2022-09-15T19:22:35.814Z,76.85
2022-09-15T19:25:04.157Z,76.03
2022-09-15T19:27:31.625Z,76.88
2022-09-15T19:30:04.136Z,77.37
2022-09-15T19:32:32.613Z,77.32
2022-09-15T19:35:00.042Z,75.56
2022-09-15T19:37:27.546Z,75.55
2022-09-15T19:39:55.658Z,75.46
2022-09-15T19:42:23.030Z,76.82
2022-09-15T19:44:50.444Z,76.20
2022-09-15T19:47:18.061Z,76.10
2022-09-15T19:49:45.425Z,76.68
2022-09-15T19:52:12.828Z,75.80
2022-09-15T19:54:40.510Z,76.02
2022-09-15T19:57:07.846Z,76.25
2022-09-15T19:59:35.613Z,76.97
2022-09-15T20:02:03.297Z,78.46
2022-09-15T20:04:30.970Z,77.63
2022-09-15T20:06:58.291Z,77.37
2022-09-15T20:09:26.244Z,76.73
2022-09-15T20:11:53.974Z,77.35
2022-09-15T20:14:21.248Z,75.93
2022-09-15T20:16:48.582Z,75.63
2022-09-15T20:19:16.216Z,75.26
2022-09-15T20:21:50.397Z,75.34
2022-09-15T20:24:19.162Z,76.78
2022-09-15T20:26:46.912Z,76.26
2022-09-15T20:29:14.384Z,74.93
2022-09-15T20:31:42.096Z,76.19
2022-09-15T20:34:09.429Z,75.00
2022-09-15T20:36:38.369Z,74.52
2022-09-15T20:39:09.222Z,74.66
2022-09-15T20:41:37.052Z,74.53
2022-09-15T20:44:05.979Z,73.97
2022-09-15T20:46:33.639Z,75.01
2022-09-15T20:49:01.444Z,74.84
2022-09-15T20:51:31.603Z,74.60
2022-09-15T20:54:00.096Z,74.42
2022-09-15T20:56:28.502Z,74.31
2022-09-15T20:58:57.114Z,74.42
2022-09-15T21:01:29.113Z,73.92
2022-09-15T21:03:56.517Z,74.40
2022-09-15T21:06:25.461Z,74.05
2022-09-15T21:08:53.417Z,73.69
2022-09-15T21:11:20.977Z,74.76
2022-09-15T21:13:49.365Z,74.37
2022-09-15T21:16:18.825Z,74.84
2022-09-15T21:18:46.411Z,76.00
2022-09-15T21:21:21.020Z,78.51
2022-09-15T21:23:49.870Z,77.43
2022-09-15T21:26:18.641Z,76.34
2022-09-15T21:28:46.012Z,76.17
2022-09-15T21:31:18.053Z,76.68
2022-09-15T21:33:45.967Z,77.01
2022-09-15T21:36:17.997Z,77.24
2022-09-15T21:38:45.391Z,77.16
2022-09-15T21:41:14.177Z,78.67
2022-09-15T21:43:43.140Z,78.06
2022-09-15T21:46:11.845Z,76.39
2022-09-15T21:48:39.333Z,75.67
2022-09-15T21:51:07.304Z,75.37
2022-09-15T21:53:37.808Z,77.11
2022-09-15T21:56:06.034Z,75.92
2022-09-15T21:58:41.745Z,76.96
2022-09-15T22:01:19.687Z,76.66
2022-09-15T22:03:49.440Z,76.77
2022-09-15T22:06:16.870Z,75.85
2022-09-15T22:08:44.418Z,76.07
2022-09-15T22:11:12.008Z,76.86
2022-09-15T22:13:40.549Z,75.79
2022-09-15T22:16:10.672Z,75.08
2022-09-15T22:18:38.706Z,76.29
2022-09-15T22:21:10.020Z,76.30
2022-09-15T22:23:37.890Z,75.67
2022-09-15T22:26:07.008Z,76.26
2022-09-15T22:28:34.358Z,77.04
2022-09-15T22:31:03.870Z,75.96
2022-09-15T22:33:31.270Z,75.70
2022-09-15T22:35:58.622Z,74.93
2022-09-15T22:38:28.377Z,75.11
2022-09-15T22:40:55.813Z,77.34
2022-09-15T22:43:23.209Z,75.68
2022-09-15T22:45:50.888Z,75.50
2022-09-15T22:48:18.322Z,75.45
2022-09-15T22:50:45.977Z,77.90
2022-09-15T22:53:13.727Z,77.67
2022-09-15T22:55:41.066Z,76.51
2022-09-15T22:58:08.540Z,75.24
2022-09-15T23:00:39.315Z,76.54
2022-09-15T23:03:06.866Z,77.40
2022-09-15T23:05:34.459Z,76.52
2022-09-15T23:08:02.744Z,75.31
2022-09-15T23:10:30.385Z,76.23
2022-09-15T23:12:59.003Z,76.32
2022-09-15T23:15:26.677Z,76.73
2022-09-15T23:17:54.253Z,75.46
2022-09-15T23:20:21.625Z,77.16
2022-09-15T23:22:49.224Z,77.12
2022-09-15T23:25:17.248Z,76.13
2022-09-15T23:27:44.609Z,76.57
2022-09-15T23:30:12.714Z,75.68
2022-09-15T23:32:40.131Z,78.65
2022-09-15T23:35:07.909Z,76.94
2022-09-15T23:37:35.599Z,76.69
2022-09-15T23:40:03.046Z,78.41
2022-09-15T23:42:30.402Z,80.78
2022-09-15T23:44:57.981Z,81.32
2022-09-15T23:47:25.297Z,80.69
2022-09-15T23:49:52.999Z,81.03
2022-09-15T23:52:20.624Z,80.62
2022-09-15T23:54:47.943Z,83.20
2022-09-15T23:57:15.277Z,80.34
2022-09-15T23:59:42.938Z,78.47
